createdAt,value
2019-05-02T00:00:45.887Z,10.04
2019-05-02T00:01:46.416Z,10.04
2019-05-02T00:02:47.074Z,10.03
2019-05-02T00:03:46.512Z,10.02
2019-05-02T00:04:51.074Z,10.00
2019-05-02T00:05:47.507Z,9.99
2019-05-02T00:06:49.016Z,9.98
2019-05-02T00:06:57.580Z,9.82
2019-05-02T00:07:59.688Z,9.80
2019-05-02T00:08:58.632Z,9.80
2019-05-02T00:10:00.255Z,9.80
2019-05-02T00:11:00.712Z,9.80
2019-05-02T00:12:01.357Z,9.81
2019-05-02T00:13:01.921Z,9.81
2019-05-02T00:14:02.218Z,9.81
2019-05-02T00:15:03.406Z,9.81
2019-05-02T00:16:02.117Z,9.80
2019-05-02T00:17:03.742Z,9.81
2019-05-02T00:18:04.425Z,9.81
2019-05-02T00:19:09.143Z,9.81
2019-05-02T00:20:04.555Z,9.82
2019-05-02T00:21:05.645Z,9.82
2019-05-02T00:22:06.201Z,9.82
2019-05-02T00:23:06.776Z,9.82
2019-05-02T00:24:07.501Z,9.81
2019-05-02T00:25:11.161Z,9.81
2019-05-02T00:26:07.877Z,9.80
2019-05-02T00:27:09.570Z,9.79
2019-05-02T00:28:12.522Z,9.78
2019-05-02T00:29:09.455Z,9.77
2019-05-02T00:30:11.014Z,9.76
2019-05-02T00:31:12.872Z,9.75
2019-05-02T00:32:11.489Z,9.74
2019-05-02T00:33:13.308Z,9.73
2019-05-02T00:34:13.856Z,9.72
2019-05-02T00:35:14.623Z,9.70
2019-05-02T00:36:15.180Z,9.69
2019-05-02T00:37:18.801Z,9.68
2019-05-02T00:38:15.641Z,9.67
2019-05-02T00:39:17.241Z,9.66
2019-05-02T00:40:20.245Z,9.66
2019-05-02T00:41:17.666Z,9.65
2019-05-02T00:42:22.445Z,9.65
2019-05-02T00:43:18.610Z,9.64
2019-05-02T00:44:20.109Z,9.63
2019-05-02T00:45:23.992Z,9.63
2019-05-02T00:46:20.818Z,9.62
2019-05-02T00:47:21.528Z,9.62
2019-05-02T00:48:23.087Z,9.61
2019-05-02T00:49:22.413Z,9.61
2019-05-02T00:50:22.736Z,9.60
2019-05-02T00:51:26.679Z,9.59
2019-05-02T00:52:24.308Z,9.59
2019-05-02T00:53:26.074Z,9.59
2019-05-02T00:54:25.926Z,9.59
2019-05-02T00:55:28.854Z,9.59
2019-05-02T00:56:54.679Z,9.65
2019-05-02T00:57:55.715Z,9.63
2019-05-02T00:58:55.075Z,9.63
2019-05-02T00:59:55.998Z,9.63
2019-05-02T01:00:56.135Z,9.63
2019-05-02T01:01:59.937Z,9.62
2019-05-02T01:02:56.411Z,9.62
2019-05-02T01:03:56.599Z,9.62
2019-05-02T01:04:59.306Z,9.61
2019-05-02T01:05:57.816Z,9.61
2019-05-02T01:06:58.666Z,9.60
2019-05-02T01:08:01.150Z,9.59
2019-05-02T01:08:59.501Z,9.58
2019-05-02T01:09:59.893Z,9.58
2019-05-02T01:11:00.281Z,9.57
2019-05-02T01:12:03.066Z,9.57
2019-05-02T01:13:00.965Z,9.56
2019-05-02T01:14:01.703Z,9.55
2019-05-02T01:15:03.245Z,9.54
2019-05-02T01:16:02.558Z,9.53
2019-05-02T01:17:04.366Z,9.52
2019-05-02T01:18:06.181Z,9.52
2019-05-02T01:19:04.329Z,9.51
2019-05-02T01:20:05.768Z,9.51
2019-05-02T01:21:06.195Z,9.50
2019-05-02T01:22:10.745Z,9.49
2019-05-02T01:23:06.374Z,9.48
2019-05-02T01:24:07.778Z,9.47
2019-05-02T01:25:15.308Z,9.45
2019-05-02T01:26:07.895Z,9.44
2019-05-02T01:27:09.567Z,9.42
2019-05-02T01:28:12.600Z,9.41
2019-05-02T01:29:09.673Z,9.40
2019-05-02T01:30:11.331Z,9.39
2019-05-02T01:31:13.230Z,9.38
2019-05-02T01:32:11.400Z,9.37
2019-05-02T01:33:12.850Z,9.35
2019-05-02T01:34:17.983Z,9.34
2019-05-02T01:35:13.034Z,9.32
2019-05-02T01:36:14.564Z,9.30
2019-05-02T01:37:20.765Z,9.28
2019-05-02T01:38:14.907Z,9.26
2019-05-02T01:39:16.341Z,9.24
2019-05-02T01:40:17.697Z,9.22
2019-05-02T01:41:16.222Z,9.20
2019-05-02T01:42:17.783Z,9.19
2019-05-02T01:43:19.857Z,9.17
2019-05-02T01:44:17.958Z,9.15
2019-05-02T01:45:19.730Z,9.14
2019-05-02T01:46:22.159Z,9.12
2019-05-02T01:47:20.270Z,9.10
2019-05-02T01:48:21.922Z,9.09
2019-05-02T01:49:23.179Z,9.07
2019-05-02T01:50:22.150Z,9.06
2019-05-02T01:51:23.764Z,9.05
2019-05-02T01:52:24.984Z,9.03
2019-05-02T01:53:23.978Z,9.01
2019-05-02T01:54:25.682Z,8.99
2019-05-02T01:55:26.367Z,8.98
2019-05-02T01:56:28.537Z,8.96
2019-05-02T01:57:26.916Z,8.95
2019-05-02T01:58:28.024Z,8.94
2019-05-02T01:59:29.051Z,8.93
2019-05-02T02:00:28.256Z,8.92
2019-05-02T02:01:29.726Z,8.91
2019-05-02T02:02:32.879Z,8.90
2019-05-02T02:03:29.637Z,8.89
2019-05-02T02:04:31.286Z,8.89
2019-05-02T02:05:32.319Z,8.88
2019-05-02T02:06:31.382Z,8.88
2019-05-02T02:07:33.240Z,8.86
2019-05-02T02:08:34.078Z,8.85
2019-05-02T02:09:33.807Z,8.84
2019-05-02T02:10:35.403Z,8.82
2019-05-02T02:10:44.062Z,8.67
2019-05-02T02:11:44.859Z,8.66
2019-05-02T02:13:02.989Z,8.66
2019-05-02T02:13:45.918Z,8.65
2019-05-02T02:14:48.127Z,8.66
2019-05-02T02:15:46.901Z,8.66
2019-05-02T02:16:48.378Z,8.65
2019-05-02T02:17:51.426Z,8.65
2019-05-02T02:18:48.574Z,8.64
2019-05-02T02:19:50.204Z,8.63
2019-05-02T02:20:50.788Z,8.63
2019-05-02T02:21:51.517Z,8.62
2019-05-02T02:22:51.849Z,8.62
2019-05-02T02:23:52.264Z,8.61
2019-05-02T02:24:55.894Z,8.61
2019-05-02T02:25:52.644Z,8.60
2019-05-02T02:26:54.174Z,8.59
2019-05-02T02:27:54.886Z,8.59
2019-05-02T02:28:54.192Z,8.58
2019-05-02T02:29:56.029Z,8.58
2019-05-02T02:30:57.691Z,8.57
2019-05-02T02:31:56.340Z,8.57
2019-05-02T02:33:00.522Z,8.57
2019-05-02T02:33:57.512Z,8.57
2019-05-02T02:35:03.603Z,8.56
2019-05-02T02:35:58.665Z,8.55
2019-05-02T02:37:05.259Z,8.54
2019-05-02T02:37:59.848Z,8.52
2019-05-02T02:39:07.126Z,8.51
2019-05-02T02:40:01.049Z,8.50
2019-05-02T02:41:51.835Z,8.28
2019-05-02T02:42:46.100Z,8.26
2019-05-02T02:43:47.684Z,8.25
2019-05-02T02:44:48.209Z,8.25
2019-05-02T02:45:51.855Z,8.25
2019-05-02T02:46:48.810Z,8.24
2019-05-02T02:47:52.954Z,8.23
2019-05-02T02:48:50.456Z,8.23
2019-05-02T02:49:56.003Z,8.22
2019-05-02T02:50:51.691Z,8.21
2019-05-02T02:51:58.223Z,8.21
2019-05-02T02:52:53.193Z,8.21
2019-05-02T02:54:02.700Z,8.20
2019-05-02T02:54:54.302Z,8.20
2019-05-02T02:56:01.543Z,8.19
2019-05-02T02:56:55.529Z,8.19
2019-05-02T02:57:58.393Z,8.18
2019-05-02T02:58:56.900Z,8.18
2019-05-02T03:00:06.357Z,8.17
2019-05-02T03:00:57.669Z,8.17
2019-05-02T03:02:09.261Z,8.16
2019-05-02T03:02:58.697Z,8.15
2019-05-02T03:04:02.025Z,8.15
2019-05-02T03:04:59.843Z,8.14
2019-05-02T03:06:05.477Z,8.13
2019-05-02T03:07:01.266Z,8.12
2019-05-02T03:08:05.445Z,8.11
2019-05-02T03:09:02.642Z,8.10
2019-05-02T03:10:06.328Z,8.09
2019-05-02T03:11:03.967Z,8.09
2019-05-02T03:12:05.422Z,8.08
2019-05-02T03:13:06.069Z,8.07
2019-05-02T03:14:09.506Z,8.06
2019-05-02T03:15:06.343Z,8.05
2019-05-02T03:16:09.303Z,8.04
2019-05-02T03:17:07.814Z,8.03
2019-05-02T03:18:09.279Z,8.03
2019-05-02T03:19:14.539Z,8.02
2019-05-02T03:20:09.587Z,8.02
2019-05-02T03:21:13.279Z,8.01
2019-05-02T03:22:11.088Z,7.99
2019-05-02T03:23:15.125Z,7.98
2019-05-02T03:24:11.934Z,7.97
2019-05-02T03:25:18.002Z,7.96
2019-05-02T03:26:14.815Z,7.95
2019-05-02T03:27:14.094Z,7.94
2019-05-02T03:28:18.554Z,7.93
2019-05-02T03:29:15.905Z,7.92
2019-05-02T03:30:31.644Z,7.92
2019-05-02T03:31:29.124Z,7.91
2019-05-02T03:32:31.810Z,7.90
2019-05-02T03:33:18.546Z,7.90
2019-05-02T03:34:19.103Z,7.89
2019-05-02T03:35:40.198Z,7.88
2019-05-02T03:36:29.277Z,7.88
2019-05-02T03:37:21.078Z,7.87
2019-05-02T03:38:31.637Z,7.87
2019-05-02T03:39:22.370Z,7.86
2019-05-02T03:40:24.211Z,7.86
2019-05-02T03:41:24.297Z,7.85
2019-05-02T03:42:25.115Z,7.85
2019-05-02T03:43:25.668Z,7.84
2019-05-02T03:44:26.534Z,7.82
2019-05-02T03:45:32.014Z,7.82
2019-05-02T03:46:26.732Z,7.81
2019-05-02T03:47:28.241Z,7.80
2019-05-02T03:48:29.007Z,7.79
2019-05-02T03:49:29.539Z,7.78
2019-05-02T03:50:32.864Z,7.77
2019-05-02T03:51:30.056Z,7.76
2019-05-02T03:51:38.575Z,7.59
2019-05-02T03:52:43.524Z,7.57
2019-05-02T03:53:39.431Z,7.57
2019-05-02T03:54:49.773Z,7.57
2019-05-02T03:55:40.759Z,7.57
2019-05-02T03:56:44.766Z,7.57
2019-05-02T03:57:42.492Z,7.57
2019-05-02T03:58:48.431Z,7.57
2019-05-02T03:59:43.636Z,7.57
2019-05-02T04:00:44.385Z,7.57
2019-05-02T04:01:46.130Z,7.57
2019-05-02T04:02:59.056Z,7.56
2019-05-02T04:03:46.686Z,7.56
2019-05-02T04:04:54.128Z,7.56
2019-05-02T04:05:47.819Z,7.55
2019-05-02T04:06:54.983Z,7.55
2019-05-02T04:07:49.157Z,7.55
2019-05-02T04:08:58.844Z,7.54
2019-05-02T04:09:50.463Z,7.54
2019-05-02T04:10:58.630Z,7.54
2019-05-02T04:11:51.709Z,7.53
2019-05-02T04:12:58.286Z,7.53
2019-05-02T04:13:52.434Z,7.52
2019-05-02T04:14:56.007Z,7.52
2019-05-02T04:15:53.460Z,7.51
2019-05-02T04:16:57.183Z,7.51
2019-05-02T04:17:54.370Z,7.50
2019-05-02T04:18:58.179Z,7.49
2019-05-02T04:19:56.575Z,7.48
2019-05-02T04:20:57.215Z,7.47
2019-05-02T04:22:01.681Z,7.45
2019-05-02T04:22:57.438Z,7.44
2019-05-02T04:24:12.805Z,7.43
2019-05-02T04:24:58.499Z,7.41
2019-05-02T04:25:59.019Z,7.40
2019-05-02T04:27:06.680Z,7.39
2019-05-02T04:28:05.825Z,7.38
2019-05-02T04:29:01.181Z,7.37
2019-05-02T04:30:09.588Z,7.36
2019-05-02T04:31:01.441Z,7.36
2019-05-02T04:32:11.155Z,7.36
2019-05-02T04:33:03.480Z,7.36
2019-05-02T04:34:13.664Z,7.35
2019-05-02T04:35:04.021Z,7.35
2019-05-02T04:36:14.192Z,7.35
2019-05-02T04:37:05.533Z,7.35
2019-05-02T04:38:15.767Z,7.34
2019-05-02T04:39:15.600Z,7.33
2019-05-02T04:40:11.407Z,7.32
2019-05-02T04:41:09.364Z,7.31
2019-05-02T04:42:13.321Z,7.30
2019-05-02T04:43:11.451Z,7.29
2019-05-02T04:44:09.337Z,7.28
2019-05-02T04:45:21.767Z,7.27
2019-05-02T04:46:18.194Z,7.26
2019-05-02T04:47:17.377Z,7.25
2019-05-02T04:48:12.223Z,7.23
2019-05-02T04:49:20.136Z,7.22
2019-05-02T04:50:17.870Z,7.21
2019-05-02T04:51:16.396Z,7.21
2019-05-02T04:52:17.225Z,7.20
2019-05-02T04:53:15.095Z,7.20
2019-05-02T04:54:25.870Z,7.19
2019-05-02T04:55:26.053Z,7.19
2019-05-02T04:56:18.464Z,7.19
2019-05-02T04:57:18.679Z,7.19
2019-05-02T04:58:27.715Z,7.19
2019-05-02T04:59:22.700Z,7.19
2019-05-02T05:00:19.599Z,7.20
2019-05-02T05:01:21.595Z,7.21
2019-05-02T05:02:29.702Z,7.21
2019-05-02T05:03:21.354Z,7.22
2019-05-02T05:04:21.673Z,7.23
2019-05-02T05:05:25.507Z,7.23
2019-05-02T05:06:22.851Z,7.23
2019-05-02T05:07:24.486Z,7.23
2019-05-02T05:08:26.418Z,7.24
2019-05-02T05:09:24.190Z,7.24
2019-05-02T05:10:27.712Z,7.24
2019-05-02T05:11:25.108Z,7.25
2019-05-02T05:12:27.748Z,7.26
2019-05-02T05:13:26.658Z,7.26
2019-05-02T05:14:31.347Z,7.27
2019-05-02T05:15:40.292Z,7.28
2019-05-02T05:16:28.642Z,7.30
2019-05-02T05:17:32.777Z,7.31
2019-05-02T05:18:29.106Z,7.32
2019-05-02T05:19:32.743Z,7.33
2019-05-02T05:19:39.357Z,7.51
2019-05-02T05:20:45.158Z,7.50
2019-05-02T05:21:40.377Z,7.51
2019-05-02T05:22:44.208Z,7.51
2019-05-02T05:23:41.602Z,7.52
2019-05-02T05:24:43.239Z,7.52
2019-05-02T05:25:43.750Z,7.53
2019-05-02T05:26:44.289Z,7.53
2019-05-02T05:27:44.876Z,7.55
2019-05-02T05:28:47.551Z,7.55
2019-05-02T05:29:46.617Z,7.56
2019-05-02T05:30:46.841Z,7.58
2019-05-02T05:31:48.159Z,7.59
2019-05-02T05:32:47.875Z,7.60
2019-05-02T05:33:47.887Z,7.61
2019-05-02T05:34:47.907Z,7.62
2019-05-02T05:35:52.452Z,7.63
2019-05-02T05:36:49.022Z,7.64
2019-05-02T05:37:53.093Z,7.65
2019-05-02T05:38:50.433Z,7.67
2019-05-02T05:39:52.705Z,7.68
2019-05-02T05:40:51.417Z,7.69
2019-05-02T05:41:53.068Z,7.70
2019-05-02T05:42:53.927Z,7.71
2019-05-02T05:43:54.396Z,7.73
2019-05-02T05:44:55.011Z,7.74
2019-05-02T05:46:06.035Z,7.76
2019-05-02T05:46:55.262Z,7.78
2019-05-02T05:48:00.836Z,7.80
2019-05-02T05:48:58.307Z,7.82
2019-05-02T05:50:00.996Z,7.84
2019-05-02T05:50:58.031Z,7.86
2019-05-02T05:52:02.577Z,7.88
2019-05-02T05:52:59.578Z,7.90
2019-05-02T05:54:02.970Z,7.93
2019-05-02T05:54:59.656Z,7.95
2019-05-02T05:56:02.575Z,7.97
2019-05-02T05:57:00.361Z,7.99
2019-05-02T05:58:12.383Z,8.02
2019-05-02T05:59:01.447Z,8.03
2019-05-02T06:00:11.994Z,8.06
2019-05-02T06:01:02.884Z,8.08
2019-05-02T06:02:05.429Z,8.10
2019-05-02T06:03:11.568Z,8.13
2019-05-02T06:04:04.712Z,8.15
2019-05-02T06:05:07.927Z,8.18
2019-05-02T06:06:09.754Z,8.21
2019-05-02T06:07:07.211Z,8.23
2019-05-02T06:08:08.163Z,8.26
2019-05-02T06:09:07.865Z,8.28
2019-05-02T06:10:09.974Z,8.31
2019-05-02T06:11:08.455Z,8.33
2019-05-02T06:12:09.996Z,8.36
2019-05-02T06:13:12.805Z,8.39
2019-05-02T06:14:10.172Z,8.41
2019-05-02T06:15:11.728Z,8.44
2019-05-02T06:16:15.106Z,8.47
2019-05-02T06:17:11.855Z,8.49
2019-05-02T06:18:13.425Z,8.52
2019-05-02T06:19:17.832Z,8.55
2019-05-02T06:20:13.375Z,8.58
2019-05-02T06:21:17.073Z,8.62
2019-05-02T06:22:16.579Z,8.65
2019-05-02T06:23:15.533Z,8.69
2019-05-02T06:24:17.417Z,8.72
2019-05-02T06:25:32.873Z,8.75
2019-05-02T06:26:18.204Z,8.79
2019-05-02T06:27:20.898Z,8.82
2019-05-02T06:28:19.868Z,8.86
2019-05-02T06:29:21.534Z,8.89
2019-05-02T06:30:21.553Z,8.93
2019-05-02T06:31:21.965Z,8.97
2019-05-02T06:31:30.498Z,9.57
2019-05-02T06:32:31.549Z,9.57
2019-05-02T06:33:32.366Z,9.57
2019-05-02T06:34:31.458Z,9.58
2019-05-02T06:35:32.897Z,9.58
2019-05-02T06:36:36.876Z,9.58
2019-05-02T06:37:33.176Z,9.58
2019-05-02T06:38:34.244Z,9.59
2019-05-02T06:39:35.159Z,9.60
2019-05-02T06:40:39.353Z,9.60
2019-05-02T06:41:35.358Z,9.61
2019-05-02T06:42:37.914Z,9.62
2019-05-02T06:43:41.363Z,9.63
2019-05-02T06:44:37.473Z,9.64
2019-05-02T06:45:39.641Z,9.65
2019-05-02T06:46:38.571Z,9.64
2019-05-02T06:47:41.544Z,9.64
2019-05-02T06:48:39.784Z,9.62
2019-05-02T06:49:41.248Z,9.60
2019-05-02T06:50:41.773Z,9.59
2019-05-02T06:51:42.279Z,9.57
2019-05-02T06:52:42.952Z,9.56
2019-05-02T06:53:47.126Z,9.55
2019-05-02T06:54:42.771Z,9.54
2019-05-02T06:55:44.426Z,9.54
2019-05-02T06:56:47.991Z,9.53
2019-05-02T06:57:44.663Z,9.53
2019-05-02T06:58:46.306Z,9.53
2019-05-02T06:59:50.052Z,9.54
2019-05-02T07:00:57.616Z,9.54
2019-05-02T07:01:47.193Z,9.55
2019-05-02T07:02:48.859Z,9.56
2019-05-02T07:03:49.129Z,9.57
2019-05-02T07:04:49.492Z,9.58
2019-05-02T07:05:50.305Z,9.59
2019-05-02T07:06:58.804Z,9.61
2019-05-02T07:07:50.022Z,9.62
2019-05-02T07:08:51.682Z,9.63
2019-05-02T07:09:51.177Z,9.65
2019-05-02T07:10:56.135Z,9.67
2019-05-02T07:11:57.273Z,9.69
2019-05-02T07:13:09.191Z,9.72
2019-05-02T07:13:51.733Z,9.74
2019-05-02T07:14:56.153Z,9.77
2019-05-02T07:15:53.282Z,9.79
2019-05-02T07:16:56.464Z,9.81
2019-05-02T07:17:54.548Z,9.83
2019-05-02T07:18:55.906Z,9.85
2019-05-02T07:19:58.837Z,9.87
2019-05-02T07:20:56.379Z,9.89
2019-05-02T07:22:00.370Z,9.90
2019-05-02T07:22:58.184Z,9.92
2019-05-02T07:23:59.974Z,9.93
2019-05-02T07:25:01.783Z,9.94
2019-05-02T07:26:00.589Z,9.95
2019-05-02T07:27:02.651Z,9.96
2019-05-02T07:28:04.677Z,9.97
2019-05-02T07:29:02.763Z,9.98
2019-05-02T07:30:04.519Z,9.99
2019-05-02T07:31:06.512Z,10.00
2019-05-02T07:32:04.427Z,10.01
2019-05-02T07:33:05.956Z,10.02
2019-05-02T07:34:08.076Z,10.03
2019-05-02T07:35:06.359Z,10.04
2019-05-02T07:35:19.281Z,10.23
2019-05-02T07:36:15.441Z,10.23
2019-05-02T07:37:17.076Z,10.23
2019-05-02T07:38:20.211Z,10.22
2019-05-02T07:39:17.296Z,10.22
2019-05-02T07:40:18.970Z,10.22
2019-05-02T07:41:18.087Z,10.22
2019-05-02T07:42:19.237Z,10.23
2019-05-02T07:43:22.206Z,10.24
2019-05-02T07:44:19.566Z,10.25
2019-05-02T07:45:21.047Z,10.26
2019-05-02T07:46:22.249Z,10.27
2019-05-02T07:47:20.894Z,10.29
2019-05-02T07:48:22.596Z,10.31
2019-05-02T07:49:26.779Z,10.32
2019-05-02T07:50:23.026Z,10.34
2019-05-02T07:51:24.668Z,10.37
2019-05-02T07:52:28.947Z,10.39
2019-05-02T07:53:24.881Z,10.42
2019-05-02T07:54:26.801Z,10.46
2019-05-02T07:55:26.437Z,10.50
2019-05-02T07:56:28.054Z,10.54
2019-05-02T07:57:30.549Z,10.57
2019-05-02T07:58:28.337Z,10.62
2019-05-02T07:59:32.197Z,10.66
2019-05-02T08:01:02.186Z,11.41
2019-05-02T08:02:03.840Z,11.41
2019-05-02T08:03:05.154Z,11.42
2019-05-02T08:04:09.419Z,11.43
2019-05-02T08:05:05.352Z,11.43
2019-05-02T08:06:08.213Z,11.44
2019-05-02T08:07:07.921Z,11.44
2019-05-02T08:08:08.080Z,11.46
2019-05-02T08:09:09.337Z,11.48
2019-05-02T08:10:10.073Z,11.50
2019-05-02T08:11:10.672Z,11.53
2019-05-02T08:12:11.248Z,11.56
2019-05-02T08:13:12.091Z,11.59
2019-05-02T08:14:11.411Z,11.63
2019-05-02T08:15:15.195Z,11.67
2019-05-02T08:16:12.747Z,11.70
2019-05-02T08:17:17.241Z,11.74
2019-05-02T08:18:13.672Z,11.80
2019-05-02T08:19:15.259Z,11.85
2019-05-02T08:20:19.283Z,11.90
2019-05-02T08:21:16.158Z,11.94
2019-05-02T08:22:17.642Z,11.98
2019-05-02T08:23:20.553Z,12.03
2019-05-02T08:24:19.252Z,12.09
2019-05-02T08:25:18.664Z,12.14
2019-05-02T08:26:21.579Z,12.21
2019-05-02T08:27:22.837Z,12.25
2019-05-02T08:28:20.609Z,12.28
2019-05-02T08:29:23.400Z,12.32
2019-05-02T08:30:22.062Z,12.36
2019-05-02T08:31:23.636Z,12.41
2019-05-02T08:32:24.372Z,12.46
2019-05-02T08:33:29.417Z,12.50
2019-05-02T08:34:25.523Z,12.53
2019-05-02T08:35:28.147Z,12.56
2019-05-02T08:36:26.044Z,12.61
2019-05-02T08:37:26.583Z,12.67
2019-05-02T08:38:28.181Z,12.72
2019-05-02T08:39:33.189Z,12.78
2019-05-02T08:40:28.794Z,12.84
2019-05-02T08:41:30.589Z,12.91
2019-05-02T08:42:32.579Z,12.97
2019-05-02T08:43:30.747Z,13.04
2019-05-02T08:44:31.442Z,13.11
2019-05-02T08:45:32.977Z,13.19
2019-05-02T08:46:31.502Z,13.29
2019-05-02T08:47:33.259Z,13.39
2019-05-02T08:48:36.431Z,13.49
2019-05-02T08:49:33.356Z,13.59
2019-05-02T08:49:42.553Z,15.34
2019-05-02T08:50:42.604Z,15.34
2019-05-02T08:51:44.390Z,15.34
2019-05-02T08:52:47.805Z,15.36
2019-05-02T08:53:44.437Z,15.37
2019-05-02T08:54:45.820Z,15.40
2019-05-02T08:55:46.725Z,15.44
2019-05-02T08:56:45.909Z,15.47
2019-05-02T08:57:47.669Z,15.50
2019-05-02T08:58:49.830Z,15.53
2019-05-02T08:59:47.915Z,15.55
2019-05-02T09:00:49.536Z,15.58
2019-05-02T09:01:51.455Z,15.60
2019-05-02T09:02:50.239Z,15.63
2019-05-02T09:03:56.959Z,15.66
2019-05-02T09:04:58.396Z,15.68
2019-05-02T09:05:51.686Z,15.71
2019-05-02T09:06:58.487Z,15.73
2019-05-02T09:07:52.714Z,15.75
2019-05-02T09:08:54.520Z,15.78
2019-05-02T09:09:55.674Z,15.81
2019-05-02T09:10:54.373Z,15.83
2019-05-02T09:12:09.056Z,15.84
2019-05-02T09:12:55.533Z,15.85
2019-05-02T09:13:57.076Z,15.86
2019-05-02T09:14:57.524Z,15.85
2019-05-02T09:15:58.023Z,15.85
2019-05-02T09:17:00.143Z,15.84
2019-05-02T09:17:58.043Z,15.83
2019-05-02T09:18:59.608Z,15.83
2019-05-02T09:20:03.447Z,15.82
2019-05-02T09:20:59.654Z,15.83
2019-05-02T09:22:02.550Z,15.83
2019-05-02T09:23:01.766Z,15.84
2019-05-02T09:24:02.489Z,15.86
2019-05-02T09:25:02.235Z,15.87
2019-05-02T09:26:02.694Z,15.87
2019-05-02T09:27:02.859Z,15.87
2019-05-02T09:28:04.498Z,15.87
2019-05-02T09:29:05.581Z,15.86
2019-05-02T09:30:04.620Z,15.84
2019-05-02T09:31:06.784Z,15.83
2019-05-02T09:32:08.759Z,15.79
2019-05-02T09:33:06.789Z,15.77
2019-05-02T09:34:08.017Z,15.75
2019-05-02T09:35:08.028Z,15.71
2019-05-02T09:36:09.556Z,15.68
2019-05-02T09:37:13.310Z,15.65
2019-05-02T09:38:09.344Z,15.63
2019-05-02T09:39:11.858Z,15.60
2019-05-02T09:40:12.541Z,15.58
2019-05-02T09:41:18.843Z,15.56
2019-05-02T09:42:12.411Z,15.56
2019-05-02T09:43:12.163Z,15.56
2019-05-02T09:44:18.576Z,15.56
2019-05-02T09:45:15.809Z,15.58
2019-05-02T09:46:16.552Z,15.58
2019-05-02T09:47:14.365Z,15.59
2019-05-02T09:48:17.235Z,15.59
2019-05-02T09:49:16.591Z,15.61
2019-05-02T09:50:15.551Z,15.62
2019-05-02T09:51:17.400Z,15.64
2019-05-02T09:52:16.230Z,15.65
2019-05-02T09:52:25.290Z,15.92
2019-05-02T09:53:26.727Z,15.90
2019-05-02T09:54:27.308Z,15.90
2019-05-02T09:55:27.883Z,15.91
2019-05-02T09:57:02.709Z,15.98
2019-05-02T09:58:02.714Z,15.95
2019-05-02T09:59:10.041Z,15.96
2019-05-02T10:00:02.668Z,15.97
2019-05-02T10:01:04.236Z,15.98
2019-05-02T10:02:04.993Z,16.00
2019-05-02T10:03:05.687Z,16.03
2019-05-02T10:04:06.206Z,16.04
2019-05-02T10:05:06.919Z,16.07
2019-05-02T10:06:08.376Z,16.10
2019-05-02T10:07:07.024Z,16.14
2019-05-02T10:08:11.626Z,16.17
2019-05-02T10:09:08.331Z,16.19
2019-05-02T10:10:09.967Z,16.21
2019-05-02T10:11:11.751Z,16.22
2019-05-02T10:12:12.215Z,16.23
2019-05-02T10:13:12.230Z,16.25
2019-05-02T10:14:11.785Z,16.26
2019-05-02T10:15:12.848Z,16.27
2019-05-02T10:16:12.686Z,16.28
2019-05-02T10:17:13.713Z,16.29
2019-05-02T10:18:14.675Z,16.30
2019-05-02T10:19:13.853Z,16.30
2019-05-02T10:20:15.402Z,16.31
2019-05-02T10:21:17.280Z,16.31
2019-05-02T10:22:15.679Z,16.31
2019-05-02T10:23:19.698Z,16.30
2019-05-02T10:24:17.759Z,16.28
2019-05-02T10:25:16.932Z,16.27
2019-05-02T10:26:23.778Z,16.25
2019-05-02T10:27:17.573Z,16.25
2019-05-02T10:28:19.570Z,16.25
2019-05-02T10:29:20.984Z,16.24
2019-05-02T10:30:21.610Z,16.25
2019-05-02T10:31:21.851Z,16.27
2019-05-02T10:32:22.677Z,16.28
2019-05-02T10:33:22.535Z,16.29
2019-05-02T10:34:22.723Z,16.30
2019-05-02T10:35:23.021Z,16.31
2019-05-02T10:36:24.116Z,16.33
2019-05-02T10:37:24.409Z,16.35
2019-05-02T10:38:25.976Z,16.37
2019-05-02T10:39:28.365Z,16.38
2019-05-02T10:40:26.358Z,16.41
2019-05-02T10:41:33.468Z,16.42
2019-05-02T10:42:27.297Z,16.43
2019-05-02T10:43:28.992Z,16.44
2019-05-02T10:44:32.751Z,16.45
2019-05-02T10:45:29.233Z,16.45
2019-05-02T10:46:33.600Z,16.46
2019-05-02T10:47:32.307Z,16.46
2019-05-02T10:48:33.159Z,16.47
2019-05-02T10:49:32.262Z,16.47
2019-05-02T10:50:32.962Z,16.47
2019-05-02T10:51:33.082Z,16.48
2019-05-02T10:52:34.996Z,16.49
2019-05-02T10:53:35.598Z,16.49
2019-05-02T10:54:37.558Z,16.51
2019-05-02T10:55:35.738Z,16.52
2019-05-02T10:56:36.914Z,16.53
2019-05-02T10:57:37.375Z,16.53
2019-05-02T10:58:37.622Z,16.54
2019-05-02T10:59:38.146Z,16.52
2019-05-02T11:00:38.770Z,16.52
2019-05-02T11:01:41.631Z,16.53
2019-05-02T11:02:39.046Z,16.54
2019-05-02T11:03:43.731Z,16.56
2019-05-02T11:04:42.107Z,16.58
2019-05-02T11:05:42.043Z,16.61
2019-05-02T11:06:42.762Z,16.64
2019-05-02T11:07:42.333Z,16.66
2019-05-02T11:08:45.977Z,16.70
2019-05-02T11:09:43.685Z,16.73
2019-05-02T11:11:12.672Z,17.25
2019-05-02T11:12:16.303Z,17.20
2019-05-02T11:13:12.988Z,17.20
2019-05-02T11:14:14.584Z,17.21
2019-05-02T11:15:14.593Z,17.22
2019-05-02T11:16:14.950Z,17.23
2019-05-02T11:17:17.798Z,17.25
2019-05-02T11:18:15.532Z,17.27
2019-05-02T11:19:15.754Z,17.28
2019-05-02T11:20:16.419Z,17.29
2019-05-02T11:21:18.919Z,17.31
2019-05-02T11:22:17.864Z,17.32
2019-05-02T11:23:19.403Z,17.34
2019-05-02T11:24:19.104Z,17.34
2019-05-02T11:25:22.550Z,17.35
2019-05-02T11:26:23.923Z,17.36
2019-05-02T11:27:22.099Z,17.36
2019-05-02T11:28:22.000Z,17.38
2019-05-02T11:29:22.810Z,17.40
2019-05-02T11:30:26.393Z,17.41
2019-05-02T11:31:22.637Z,17.42
2019-05-02T11:32:24.193Z,17.42
2019-05-02T11:33:24.683Z,17.43
2019-05-02T11:34:25.324Z,17.44
2019-05-02T11:35:26.007Z,17.44
2019-05-02T11:36:27.536Z,17.45
2019-05-02T11:37:26.005Z,17.46
2019-05-02T11:38:48.410Z,17.46
2019-05-02T11:39:34.640Z,17.45
2019-05-02T11:40:27.873Z,17.46
2019-05-02T11:41:31.588Z,17.47
2019-05-02T11:42:29.276Z,17.47
2019-05-02T11:43:32.611Z,17.49
2019-05-02T11:44:30.087Z,17.51
2019-05-02T11:45:32.323Z,17.53
2019-05-02T11:46:32.961Z,17.55
2019-05-02T11:47:32.845Z,17.56
2019-05-02T11:48:32.382Z,17.57
2019-05-02T11:49:33.901Z,17.59
2019-05-02T11:50:35.533Z,17.60
2019-05-02T11:51:34.183Z,17.62
2019-05-02T11:52:37.450Z,17.63
2019-05-02T11:53:35.427Z,17.63
2019-05-02T11:54:39.151Z,17.65
2019-05-02T11:55:36.777Z,17.67
2019-05-02T11:56:41.115Z,17.68
2019-05-02T11:57:37.995Z,17.68
2019-05-02T11:58:40.842Z,17.70
2019-05-02T11:59:39.421Z,17.71
2019-05-02T12:00:45.372Z,17.74
2019-05-02T12:01:42.626Z,17.78
2019-05-02T12:02:41.625Z,17.82
2019-05-02T12:03:42.358Z,17.85
2019-05-02T12:04:42.652Z,17.86
2019-05-02T12:05:44.627Z,17.88
2019-05-02T12:06:49.880Z,17.90
2019-05-02T12:07:44.901Z,17.92
2019-05-02T12:08:49.392Z,17.93
2019-05-02T12:09:55.452Z,17.95
2019-05-02T12:10:46.811Z,17.97
2019-05-02T12:11:52.708Z,17.99
2019-05-02T12:12:48.157Z,18.00
2019-05-02T12:13:52.741Z,18.01
2019-05-02T12:14:49.851Z,18.03
2019-05-02T12:15:52.027Z,18.05
2019-05-02T12:16:52.777Z,18.07
2019-05-02T12:18:00.249Z,18.09
2019-05-02T12:18:53.854Z,18.09
2019-05-02T12:19:53.899Z,18.10
2019-05-02T12:20:55.365Z,18.10
2019-05-02T12:21:55.953Z,18.10
2019-05-02T12:22:07.222Z,18.09
2019-05-02T12:23:05.233Z,18.07
2019-05-02T12:24:05.776Z,18.08
2019-05-02T12:25:06.389Z,18.09
2019-05-02T12:26:08.019Z,18.11
2019-05-02T12:27:08.676Z,18.13
2019-05-02T12:28:09.544Z,18.15
2019-05-02T12:29:12.108Z,18.17
2019-05-02T12:30:11.672Z,18.19
2019-05-02T12:31:13.208Z,18.21
2019-05-02T12:32:12.038Z,18.23
2019-05-02T12:33:12.244Z,18.25
2019-05-02T12:34:12.167Z,18.28
2019-05-02T12:35:11.957Z,18.31
2019-05-02T12:36:13.067Z,18.34
2019-05-02T12:37:13.712Z,18.37
2019-05-02T12:38:14.270Z,18.41
2019-05-02T12:39:14.850Z,18.45
2019-05-02T12:40:15.322Z,18.49
2019-05-02T12:41:22.002Z,18.52
2019-05-02T12:42:15.610Z,18.55
2019-05-02T12:43:16.036Z,18.58
2019-05-02T12:44:17.933Z,18.61
2019-05-02T12:45:18.430Z,18.64
2019-05-02T12:46:19.314Z,18.66
2019-05-02T12:47:19.532Z,18.68
2019-05-02T12:48:22.007Z,18.70
2019-05-02T12:49:25.276Z,18.72
2019-05-02T12:50:22.469Z,18.73
2019-05-02T12:51:22.561Z,18.75
2019-05-02T12:52:22.564Z,18.76
2019-05-02T12:53:22.559Z,18.75
2019-05-02T12:54:24.566Z,18.73
2019-05-02T12:55:25.433Z,18.72
2019-05-02T12:56:26.201Z,18.70
2019-05-02T12:57:26.907Z,18.68
2019-05-02T12:58:26.718Z,18.67
2019-05-02T12:59:28.330Z,18.66
2019-05-02T13:00:28.755Z,18.64
2019-05-02T13:01:29.261Z,18.63
2019-05-02T13:02:29.713Z,18.61
2019-05-02T13:03:31.699Z,18.59
2019-05-02T13:04:32.281Z,18.58
2019-05-02T13:05:31.793Z,18.58
2019-05-02T13:06:32.773Z,18.58
2019-05-02T13:07:32.514Z,18.58
2019-05-02T13:08:33.713Z,18.58
2019-05-02T13:09:34.410Z,18.58
2019-05-02T13:10:34.842Z,18.57